Wardle, United Kingdom
Current Conditions -  °F | °C
As of 5:50 AM on Thursday 29 Jan 2015 (Local Time) from EGCC Reporting Station
Light Rain Light Rain  
Wind Chill: 26°   Ceiling: 2400
Heat Index: 36°   Visibility: 6mi
Dew Point: 32°   Wind: 16mph
Humidity: 87%   Direction: 260°W
Pressure: 29.12"   Gusts: NA
Location:  53.65°N, 2.13°W
Report Text: EGCC 290550Z AUTO 26014KT 9999 -RA FEW008/// SCT018/// BKN024/// //////TCU 02/00 Q0986
Loading
Personal Weather Stations






























Interactive Weather Map New forecast layout! Learn more

10-Day Weather Forecast

Advertisements
Track Severe Weather on mobile